Time;durP1;ratioP1;P1;durP2;ratioP2;P2;SDS_P1;SDS_P2;PMS_P1;PMS_P2;Temp;Humidity;BMP_temperature;BMP_pressure;BME280_temperature;BME280_humidity;BME280_pressure;Samples;Min_cycle;Max_cycle;Signal;HPM_P1;HPM_P2
2024/04/07 00:00:22;;;;;;;5.53;2.05;;;;;;;;;;5032368;28;20076;-68
2024/04/07 00:02:50;;;;;;;6.18;2.28;;;;;;;;;;5051466;28;20068;-69
2024/04/07 00:05:16;;;;;;;6.18;1.80;;;;;;;;;;5029761;28;20058;-70
2024/04/07 00:07:43;;;;;;;5.70;1.80;;;;;;;;;;4999405;28;20041;-71
2024/04/07 00:10:08;;;;;;;7.13;2.05;;;;;;;;;;5029050;28;20495;-68
2024/04/07 00:12:35;;;;;;;5.32;1.90;;;;;;;;;;5028999;28;20061;-68
2024/04/07 00:15:04;;;;;;;9.15;2.55;;;;;;;;;;5024730;28;20049;-68
2024/04/07 00:17:32;;;;;;;19.35;6.03;;;;;;;;;;5022056;28;20049;-68
2024/04/07 00:19:57;;;;;;;15.00;6.97;;;;;;;;;;5035209;28;20063;-68
2024/04/07 00:22:25;;;;;;;15.95;8.63;;;;;;;;;;5040853;28;20124;-70
2024/04/07 00:24:51;;;;;;;12.15;4.38;;;;;;;;;;5022870;28;20177;-68
2024/04/07 00:27:17;;;;;;;6.20;2.25;;;;;;;;;;5044281;28;20081;-68
2024/04/07 00:29:44;;;;;;;7.10;2.50;;;;;;;;;;5007310;28;20121;-71
2024/04/07 00:32:12;;;;;;;9.00;2.55;;;;;;;;;;4983183;28;20050;-70
2024/04/07 00:34:39;;;;;;;6.65;2.40;;;;;;;;;;4996003;28;20054;-69
2024/04/07 00:37:05;;;;;;;7.47;2.50;;;;;;;;;;4997664;28;20136;-68
2024/04/07 00:39:31;;;;;;;6.55;2.40;;;;;;;;;;5005722;28;20080;-70
2024/04/07 00:41:58;;;;;;;7.95;2.22;;;;;;;;;;5024626;28;20046;-68
2024/04/07 00:44:24;;;;;;;7.38;2.28;;;;;;;;;;5029924;28;20061;-67
2024/04/07 00:46:51;;;;;;;6.80;1.52;;;;;;;;;;5034784;28;20068;-70
2024/04/07 00:49:18;;;;;;;8.43;2.33;;;;;;;;;;5025377;28;20045;-69
2024/04/07 00:51:45;;;;;;;3.83;1.33;;;;;;;;;;5026152;28;20131;-70
2024/04/07 00:54:12;;;;;;;3.33;1.35;;;;;;;;;;5018781;28;20137;-73
2024/04/07 00:56:39;;;;;;;9.93;1.45;;;;;;;;;;5026448;28;20053;-72
2024/04/07 00:59:06;;;;;;;4.93;1.50;;;;;;;;;;5037883;28;20056;-72
2024/04/07 01:01:33;;;;;;;4.40;1.40;;;;;;;;;;5018724;28;20054;-70
2024/04/07 01:03:58;;;;;;;5.97;2.05;;;;;;;;;;5026320;28;20057;-71
2024/04/07 01:06:26;;;;;;;6.30;1.40;;;;;;;;;;5036983;28;20052;-73
2024/04/07 01:08:54;;;;;;;5.72;1.30;;;;;;;;;;5040169;28;20061;-74
2024/04/07 01:11:26;;;;;;;9.13;1.45;;;;;;;;;;5031551;28;20057;-71
2024/04/07 01:13:52;;;;;;;6.57;1.48;;;;;;;;;;5026728;28;20077;-70
2024/04/07 01:16:19;;;;;;;7.28;1.75;;;;;;;;;;5026412;28;20302;-73
2024/04/07 01:18:44;;;;;;;8.15;1.77;;;;;;;;;;5022944;28;20053;-69
2024/04/07 01:21:11;;;;;;;4.78;1.42;;;;;;;;;;5045725;28;20076;-71
2024/04/07 01:23:38;;;;;;;9.38;1.50;;;;;;;;;;5031674;28;20061;-69
2024/04/07 01:26:05;;;;;;;5.00;1.15;;;;;;;;;;5032019;28;20049;-70
2024/04/07 01:28:31;;;;;;;3.53;1.00;;;;;;;;;;5019837;28;20067;-69
2024/04/07 01:30:58;;;;;;;4.38;1.30;;;;;;;;;;5026527;28;20057;-72
2024/04/07 01:33:25;;;;;;;6.80;1.65;;;;;;;;;;5040412;28;20129;-70
2024/04/07 01:35:50;;;;;;;6.43;1.20;;;;;;;;;;5027623;28;20065;-69
2024/04/07 01:38:17;;;;;;;6.03;1.27;;;;;;;;;;5044375;28;20064;-68
2024/04/07 01:40:45;;;;;;;3.40;1.23;;;;;;;;;;5026571;28;20065;-70
2024/04/07 01:43:11;;;;;;;6.03;1.50;;;;;;;;;;5049506;28;20058;-71
2024/04/07 01:45:37;;;;;;;4.50;1.30;;;;;;;;;;5024102;28;20144;-70
2024/04/07 01:48:04;;;;;;;7.03;1.08;;;;;;;;;;5027654;28;20143;-71
2024/04/07 01:50:31;;;;;;;6.03;1.10;;;;;;;;;;5019321;28;20193;-70
2024/04/07 01:52:58;;;;;;;3.67;0.80;;;;;;;;;;5030653;28;20045;-70
2024/04/07 01:55:24;;;;;;;2.60;0.95;;;;;;;;;;5017656;28;20077;-71
2024/04/07 01:57:52;;;;;;;3.95;1.20;;;;;;;;;;5016506;28;20135;-70
2024/04/07 02:00:18;;;;;;;2.80;0.80;;;;;;;;;;5041670;28;20064;-68
2024/04/07 02:02:45;;;;;;;1.75;0.70;;;;;;;;;;5032710;28;20067;-69
2024/04/07 02:05:10;;;;;;;2.38;0.80;;;;;;;;;;5012787;28;20085;-70
2024/04/07 02:07:37;;;;;;;6.30;1.13;;;;;;;;;;5038324;28;20072;-72
2024/04/07 02:10:03;;;;;;;4.35;0.98;;;;;;;;;;5026320;28;21758;-69
2024/04/07 02:12:34;;;;;;;2.85;1.10;;;;;;;;;;5047575;28;20175;-69
2024/04/07 02:15:01;;;;;;;3.67;1.23;;;;;;;;;;5027000;28;20052;-68
2024/04/07 02:17:27;;;;;;;2.58;0.98;;;;;;;;;;5041786;28;20195;-70
2024/04/07 02:19:55;;;;;;;3.80;0.70;;;;;;;;;;5027798;28;20076;-71
2024/04/07 02:22:21;;;;;;;2.25;0.80;;;;;;;;;;5032833;28;20080;-70
2024/04/07 02:24:47;;;;;;;3.50;1.15;;;;;;;;;;5024262;28;20121;-72
2024/04/07 02:27:13;;;;;;;1.85;0.60;;;;;;;;;;5035238;28;20052;-69
2024/04/07 02:29:39;;;;;;;3.70;0.75;;;;;;;;;;5027570;28;20166;-70
2024/04/07 02:32:08;;;;;;;3.78;1.00;;;;;;;;;;5032845;28;20299;-68
2024/04/07 02:34:33;;;;;;;;;;;;;;;;;;5030293;28;20107;-69
2024/04/07 02:37:00;;;;;;;2.55;0.70;;;;;;;;;;5030432;28;19960;-70
2024/04/07 02:39:26;;;;;;;2.03;0.70;;;;;;;;;;5033270;28;20061;-70
2024/04/07 02:41:53;;;;;;;3.40;0.70;;;;;;;;;;5021200;28;20068;-71
2024/04/07 02:48:03;;;;;;;2.15;0.80;;;;;;;;;;5024717;28;20135;-68
2024/04/07 02:49:51;;;;;;;7.63;1.10;;;;;;;;;;5044272;28;20056;-69
2024/04/07 02:52:18;;;;;;;3.05;0.80;;;;;;;;;;5031789;28;20053;-72
2024/04/07 02:54:44;;;;;;;6.30;0.73;;;;;;;;;;5043035;28;20050;-69
2024/04/07 02:59:44;;;;;;;3.28;0.77;;;;;;;;;;5006390;28;20057;-63
2024/04/07 03:02:11;;;;;;;8.63;0.98;;;;;;;;;;4999083;28;20060;-63
2024/04/07 03:04:38;;;;;;;4.18;0.63;;;;;;;;;;5007101;28;20056;-64
2024/04/07 03:07:06;;;;;;;1.45;0.60;;;;;;;;;;4995693;28;20072;-64
2024/04/07 03:09:32;;;;;;;;;;;;;;;;;;4999243;28;20116;-65
2024/04/07 03:11:58;;;;;;;2.25;0.60;;;;;;;;;;5010505;28;20039;-64
2024/04/07 03:14:24;;;;;;;0.88;0.52;;;;;;;;;;4994401;28;20103;-63
2024/04/07 03:16:51;;;;;;;3.88;0.75;;;;;;;;;;5028078;28;20056;-64
2024/04/07 03:19:17;;;;;;;2.75;0.68;;;;;;;;;;5003591;28;20049;-65
2024/04/07 03:21:47;;;;;;;1.10;0.55;;;;;;;;;;4997134;28;20052;-64
2024/04/07 03:24:14;;;;;;;2.17;0.40;;;;;;;;;;4961468;28;20061;-62
2024/04/07 03:26:41;;;;;;;3.47;0.60;;;;;;;;;;4999760;28;20089;-63
2024/04/07 03:29:06;;;;;;;0.95;0.40;;;;;;;;;;5015709;28;20051;-64
2024/04/07 03:31:33;;;;;;;4.30;0.52;;;;;;;;;;5012819;28;20053;-65
2024/04/07 03:33:59;;;;;;;1.85;0.63;;;;;;;;;;4998288;28;20149;-65
2024/04/07 03:36:28;;;;;;;1.30;0.73;;;;;;;;;;5034724;28;20088;-64
2024/04/07 03:38:56;;;;;;;2.80;0.47;;;;;;;;;;5002604;28;20052;-64
2024/04/07 03:41:25;;;;;;;1.50;0.55;;;;;;;;;;5035466;28;20138;-63
2024/04/07 03:43:52;;;;;;;1.98;0.77;;;;;;;;;;5013411;28;20057;-61
2024/04/07 03:46:20;;;;;;;1.02;0.52;;;;;;;;;;5033918;28;20049;-63
2024/04/07 03:48:45;;;;;;;1.90;0.50;;;;;;;;;;5004208;28;20115;-65
2024/04/07 03:51:13;;;;;;;2.67;0.90;;;;;;;;;;5015865;28;20061;-64
2024/04/07 03:53:38;;;;;;;1.23;0.40;;;;;;;;;;5019491;28;20060;-65
2024/04/07 03:56:07;;;;;;;1.48;0.50;;;;;;;;;;4994261;28;20056;-62
2024/04/07 03:58:36;;;;;;;0.68;0.35;;;;;;;;;;5028968;28;20080;-62
2024/04/07 04:01:06;;;;;;;2.20;0.68;;;;;;;;;;5018311;28;20056;-62
2024/04/07 04:03:31;;;;;;;2.65;0.55;;;;;;;;;;5000948;28;20053;-64
2024/04/07 04:06:01;;;;;;;2.45;0.50;;;;;;;;;;4996604;28;20157;-62
2024/04/07 04:08:27;;;;;;;2.58;0.63;;;;;;;;;;5021876;28;20057;-63
2024/04/07 04:10:55;;;;;;;4.63;0.70;;;;;;;;;;5011836;28;20051;-64
2024/04/07 04:13:20;;;;;;;1.65;0.50;;;;;;;;;;5024398;28;20057;-64
2024/04/07 04:15:51;;;;;;;1.55;0.55;;;;;;;;;;4989310;28;20052;-64
2024/04/07 04:18:18;;;;;;;2.50;0.70;;;;;;;;;;5034560;28;20063;-64
2024/04/07 04:20:45;;;;;;;1.42;0.40;;;;;;;;;;5010757;28;20046;-65
2024/04/07 04:23:11;;;;;;;0.40;0.40;;;;;;;;;;5019642;28;20140;-64
2024/04/07 04:25:51;;;;;;;1.75;0.28;;;;;;;;;;5003119;28;20063;-63
2024/04/07 04:28:17;;;;;;;0.63;0.40;;;;;;;;;;5013499;28;20111;-62
2024/04/07 04:30:53;;;;;;;1.27;0.40;;;;;;;;;;5012624;28;20049;-63
2024/04/07 04:33:20;;;;;;;2.42;0.20;;;;;;;;;;5035658;28;20060;-62
2024/04/07 04:35:47;;;;;;;2.08;0.50;;;;;;;;;;4991267;28;20064;-64
2024/04/07 04:38:13;;;;;;;0.43;0.30;;;;;;;;;;5017624;28;20048;-62
2024/04/07 04:40:40;;;;;;;3.83;0.52;;;;;;;;;;5007453;28;20057;-64
2024/04/07 04:43:07;;;;;;;0.82;0.50;;;;;;;;;;5019106;28;20041;-61
2024/04/07 04:45:36;;;;;;;1.48;0.43;;;;;;;;;;4995081;28;20060;-63
2024/04/07 04:48:04;;;;;;;1.63;0.30;;;;;;;;;;5017969;28;20049;-62
2024/04/07 04:50:31;;;;;;;2.70;0.40;;;;;;;;;;5003655;28;20053;-62
2024/04/07 04:52:57;;;;;;;0.57;0.30;;;;;;;;;;5001709;28;20097;-63
2024/04/07 04:55:24;;;;;;;0.47;0.30;;;;;;;;;;4984396;28;20183;-64
2024/04/07 04:57:49;;;;;;;2.47;0.47;;;;;;;;;;5007599;28;20131;-61
2024/04/07 05:00:16;;;;;;;1.05;0.60;;;;;;;;;;5003595;28;20056;-64
2024/04/07 05:02:42;;;;;;;1.75;0.40;;;;;;;;;;5008071;28;20123;-65
2024/04/07 05:05:12;;;;;;;4.40;0.38;;;;;;;;;;5001236;28;20059;-63
2024/04/07 05:07:47;;;;;;;1.90;0.40;;;;;;;;;;5020942;28;20050;-61
2024/04/07 05:10:16;;;;;;;0.98;0.40;;;;;;;;;;5011407;28;20057;-64
2024/04/07 05:12:46;;;;;;;3.70;0.43;;;;;;;;;;5009493;28;20135;-63
2024/04/07 05:15:13;;;;;;;0.35;0.32;;;;;;;;;;5012551;28;20037;-65
2024/04/07 05:17:46;;;;;;;0.38;0.20;;;;;;;;;;4989546;28;20138;-64
2024/04/07 05:20:15;;;;;;;2.70;0.45;;;;;;;;;;5032324;28;20069;-62
2024/04/07 05:22:41;;;;;;;0.30;0.30;;;;;;;;;;5006335;28;20041;-66
2024/04/07 05:25:08;;;;;;;1.88;0.40;;;;;;;;;;5021470;28;20055;-64
2024/04/07 05:27:33;;;;;;;1.45;0.40;;;;;;;;;;5020186;28;20110;-63
2024/04/07 05:30:01;;;;;;;0.30;0.30;;;;;;;;;;5008333;28;20065;-64
2024/04/07 05:32:27;;;;;;;1.52;0.50;;;;;;;;;;4999762;28;20210;-64
2024/04/07 05:34:56;;;;;;;1.70;0.40;;;;;;;;;;4991529;28;20045;-63
2024/04/07 05:37:26;;;;;;;1.73;0.40;;;;;;;;;;5013408;28;20107;-66
2024/04/07 05:39:54;;;;;;;0.38;0.38;;;;;;;;;;5011347;28;20060;-65
2024/04/07 05:42:20;;;;;;;2.72;0.47;;;;;;;;;;5029473;28;20060;-64
2024/04/07 05:44:59;;;;;;;1.90;0.50;;;;;;;;;;5003649;28;20057;-61
2024/04/07 05:47:26;;;;;;;2.80;0.63;;;;;;;;;;5000260;28;20053;-63
2024/04/07 05:49:53;;;;;;;15.80;1.08;;;;;;;;;;4999088;28;20049;-62
2024/04/07 05:52:20;;;;;;;0.45;0.40;;;;;;;;;;5035518;28;20057;-63
2024/04/07 05:54:51;;;;;;;0.90;0.20;;;;;;;;;;5011439;28;20049;-63
2024/04/07 05:57:19;;;;;;;1.23;0.45;;;;;;;;;;5012943;28;20045;-64
2024/04/07 05:59:52;;;;;;;0.47;0.30;;;;;;;;;;5011683;28;20109;-63
2024/04/07 06:02:23;;;;;;;2.38;0.50;;;;;;;;;;5031983;28;20049;-66
2024/04/07 06:04:52;;;;;;;1.48;0.40;;;;;;;;;;5005334;28;20049;-64
2024/04/07 06:07:17;;;;;;;3.50;0.40;;;;;;;;;;5013781;28;20049;-65
2024/04/07 06:09:53;;;;;;;0.88;0.25;;;;;;;;;;5029718;28;20061;-63
2024/04/07 06:12:19;;;;;;;3.53;0.43;;;;;;;;;;5034891;28;20080;-63
2024/04/07 06:14:46;;;;;;;0.63;0.35;;;;;;;;;;4998214;28;20053;-65
2024/04/07 06:17:12;;;;;;;0.82;0.47;;;;;;;;;;5035698;28;20132;-64
2024/04/07 06:19:39;;;;;;;1.13;0.40;;;;;;;;;;5017622;28;20148;-65
2024/04/07 06:22:05;;;;;;;0.93;0.47;;;;;;;;;;5012712;28;20067;-64
2024/04/07 06:24:32;;;;;;;1.35;0.38;;;;;;;;;;5003098;28;20063;-64
2024/04/07 06:26:59;;;;;;;0.73;0.30;;;;;;;;;;5009410;28;20075;-65
2024/04/07 06:29:28;;;;;;;0.57;0.50;;;;;;;;;;5019483;28;20056;-63
2024/04/07 06:31:54;;;;;;;;;;;;;;;;;;5002742;28;20191;-65
2024/04/07 06:34:20;;;;;;;0.95;0.50;;;;;;;;;;4992537;28;19943;-63
2024/04/07 06:36:48;;;;;;;0.73;0.25;;;;;;;;;;5013094;28;20049;-66
2024/04/07 06:39:16;;;;;;;1.45;0.70;;;;;;;;;;5012011;28;20064;-65
2024/04/07 06:41:43;;;;;;;1.75;0.30;;;;;;;;;;5021858;28;20052;-65
2024/04/07 06:44:12;;;;;;;1.23;0.47;;;;;;;;;;4993602;28;20204;-63
2024/04/07 06:46:37;;;;;;;3.45;0.55;;;;;;;;;;5012128;28;20439;-64
2024/04/07 06:49:07;;;;;;;0.32;0.32;;;;;;;;;;5013641;28;20052;-65
2024/04/07 06:51:33;;;;;;;1.70;0.50;;;;;;;;;;5034953;28;20057;-65
2024/04/07 06:54:01;;;;;;;3.80;0.60;;;;;;;;;;4948491;28;20062;-65
2024/04/07 06:56:28;;;;;;;5.25;0.60;;;;;;;;;;5001480;28;20072;-65
2024/04/07 06:58:54;;;;;;;1.48;0.52;;;;;;;;;;5027702;28;20060;-65
2024/04/07 07:01:22;;;;;;;3.60;0.70;;;;;;;;;;5032223;28;20471;-66
2024/04/07 07:03:50;;;;;;;0.30;0.30;;;;;;;;;;5019112;28;20059;-63
2024/04/07 07:06:17;;;;;;;1.02;0.40;;;;;;;;;;5021814;28;20077;-64
2024/04/07 07:08:44;;;;;;;2.78;0.47;;;;;;;;;;5016493;28;20057;-64
2024/04/07 07:11:12;;;;;;;7.13;0.65;;;;;;;;;;5035663;28;20080;-66
2024/04/07 07:13:42;;;;;;;2.72;0.70;;;;;;;;;;5007230;28;20053;-64
2024/04/07 07:16:08;;;;;;;0.80;0.40;;;;;;;;;;5014626;28;20092;-64
2024/04/07 07:18:37;;;;;;;1.33;0.50;;;;;;;;;;5019242;28;20056;-65
2024/04/07 07:21:03;;;;;;;2.38;0.60;;;;;;;;;;5023121;28;20041;-64
2024/04/07 07:23:32;;;;;;;1.48;0.50;;;;;;;;;;5026532;28;20057;-64
2024/04/07 07:26:02;;;;;;;2.97;0.57;;;;;;;;;;4997086;28;20075;-64
2024/04/07 07:28:30;;;;;;;1.10;0.50;;;;;;;;;;5024130;28;20090;-65
2024/04/07 07:31:04;;;;;;;0.88;0.47;;;;;;;;;;5024582;28;20119;-62
2024/04/07 07:33:29;;;;;;;1.10;0.50;;;;;;;;;;5038609;28;20056;-63
2024/04/07 07:35:58;;;;;;;2.78;0.35;;;;;;;;;;4971983;28;20049;-63
2024/04/07 07:38:24;;;;;;;1.17;0.50;;;;;;;;;;5029867;28;20156;-62
2024/04/07 07:40:51;;;;;;;1.40;0.47;;;;;;;;;;5017549;28;20064;-63
2024/04/07 07:43:17;;;;;;;4.55;0.40;;;;;;;;;;5037829;28;20057;-63
2024/04/07 07:45:47;;;;;;;1.17;0.32;;;;;;;;;;5020550;28;20049;-63
2024/04/07 07:48:13;;;;;;;4.72;0.80;;;;;;;;;;5021902;28;20103;-63
2024/04/07 07:50:41;;;;;;;1.25;0.43;;;;;;;;;;5028786;28;20060;-63
2024/04/07 07:53:09;;;;;;;4.53;0.73;;;;;;;;;;5023997;28;20049;-62
2024/04/07 07:55:39;;;;;;;3.65;0.60;;;;;;;;;;5000331;28;20073;-64
2024/04/07 07:58:08;;;;;;;2.67;0.68;;;;;;;;;;5020058;28;20049;-64
2024/04/07 08:00:38;;;;;;;1.98;0.50;;;;;;;;;;5049776;28;20056;-65
2024/04/07 08:03:04;;;;;;;1.35;0.50;;;;;;;;;;5046474;28;20057;-63
2024/04/07 08:05:31;;;;;;;2.03;0.57;;;;;;;;;;5017472;28;20064;-64
2024/04/07 08:07:59;;;;;;;2.88;0.70;;;;;;;;;;5014131;28;20099;-64
2024/04/07 08:10:30;;;;;;;3.33;0.80;;;;;;;;;;5018345;28;20064;-63
2024/04/07 08:12:57;;;;;;;1.95;0.60;;;;;;;;;;5022480;28;20064;-65
2024/04/07 08:15:24;;;;;;;1.08;0.40;;;;;;;;;;5013313;28;20069;-61
2024/04/07 08:17:51;;;;;;;2.97;0.70;;;;;;;;;;5021218;28;20053;-64
2024/04/07 08:20:21;;;;;;;4.15;0.70;;;;;;;;;;5029184;28;20045;-64
2024/04/07 08:22:48;;;;;;;;;;;;;;;;;;5035074;28;20057;-64
2024/04/07 08:25:17;;;;;;;2.28;0.70;;;;;;;;;;5028986;28;19944;-63
2024/04/07 08:27:49;;;;;;;1.25;0.60;;;;;;;;;;5033851;28;20126;-63
2024/04/07 08:30:15;;;;;;;3.47;0.70;;;;;;;;;;5022242;28;20075;-63
2024/04/07 08:32:41;;;;;;;0.93;0.38;;;;;;;;;;5021958;28;20044;-63
2024/04/07 08:35:09;;;;;;;2.25;0.63;;;;;;;;;;5016908;28;20054;-62
2024/04/07 08:37:37;;;;;;;1.20;0.70;;;;;;;;;;5034778;28;20085;-65
2024/04/07 08:40:04;;;;;;;2.75;0.73;;;;;;;;;;5032012;28;20061;-62
2024/04/07 08:42:32;;;;;;;4.20;0.57;;;;;;;;;;5034651;28;20045;-62
2024/04/07 08:45:02;;;;;;;3.25;1.05;;;;;;;;;;5021892;28;20049;-61
2024/04/07 08:47:28;;;;;;;10.90;3.53;;;;;;;;;;5048661;28;20053;-62
2024/04/07 08:49:56;;;;;;;4.45;0.95;;;;;;;;;;5021299;28;20280;-62
2024/04/07 08:52:23;;;;;;;2.55;0.70;;;;;;;;;;5037579;28;20061;-62
2024/04/07 08:54:52;;;;;;;3.40;0.82;;;;;;;;;;4997441;28;20052;-63
2024/04/07 08:57:19;;;;;;;3.55;0.80;;;;;;;;;;5022450;28;20053;-61
2024/04/07 08:59:48;;;;;;;1.45;0.60;;;;;;;;;;5016732;28;20063;-63
2024/04/07 09:02:16;;;;;;;4.03;0.80;;;;;;;;;;5024327;28;20045;-63
2024/04/07 09:04:43;;;;;;;3.17;0.57;;;;;;;;;;5038525;28;20146;-62
2024/04/07 09:07:10;;;;;;;4.18;1.08;;;;;;;;;;5027239;28;20045;-63
2024/04/07 09:09:40;;;;;;;4.47;0.90;;;;;;;;;;5033426;28;20057;-64
2024/04/07 09:12:07;;;;;;;3.13;0.90;;;;;;;;;;5020660;28;20054;-62
2024/04/07 09:14:39;;;;;;;2.53;0.80;;;;;;;;;;5014358;28;20048;-61
2024/04/07 09:17:09;;;;;;;7.18;2.55;;;;;;;;;;5019480;28;20149;-63
2024/04/07 09:19:39;;;;;;;4.75;1.65;;;;;;;;;;5022392;28;20268;-64
2024/04/07 09:22:07;;;;;;;11.25;5.35;;;;;;;;;;5021980;28;20080;-62
2024/04/07 09:24:38;;;;;;;4.72;1.05;;;;;;;;;;5014392;28;20052;-62
2024/04/07 09:27:06;;;;;;;3.58;0.77;;;;;;;;;;5029016;28;20068;-61
2024/04/07 09:29:34;;;;;;;3.60;0.85;;;;;;;;;;5030067;28;20060;-62
2024/04/07 09:32:00;;;;;;;3.80;0.90;;;;;;;;;;5011219;28;20064;-61
2024/04/07 09:34:28;;;;;;;2.72;0.43;;;;;;;;;;4999375;28;20049;-63
2024/04/07 09:36:55;;;;;;;2.47;0.68;;;;;;;;;;5016526;28;20140;-62
2024/04/07 09:39:23;;;;;;;3.58;0.70;;;;;;;;;;5035635;28;20065;-62
2024/04/07 09:41:55;;;;;;;3.33;0.90;;;;;;;;;;5029754;28;20049;-61
2024/04/07 09:44:22;;;;;;;3.30;0.70;;;;;;;;;;4997920;28;20052;-66
2024/04/07 09:46:50;;;;;;;4.53;0.80;;;;;;;;;;5030831;28;20068;-60
2024/04/07 09:49:19;;;;;;;3.70;0.60;;;;;;;;;;5027874;28;20075;-63
2024/04/07 09:51:53;;;;;;;2.65;0.65;;;;;;;;;;5021270;28;20129;-62
2024/04/07 09:54:30;;;;;;;3.50;0.80;;;;;;;;;;5011655;28;20314;-64
2024/04/07 09:56:56;;;;;;;5.00;0.57;;;;;;;;;;5021047;28;20077;-63
2024/04/07 09:59:27;;;;;;;5.38;0.77;;;;;;;;;;5041473;28;20053;-63
2024/04/07 10:01:54;;;;;;;1.17;0.57;;;;;;;;;;5036729;28;20049;-63
2024/04/07 10:04:24;;;;;;;4.30;1.30;;;;;;;;;;5028936;28;20061;-63
2024/04/07 10:06:50;;;;;;;7.18;1.30;;;;;;;;;;5018177;28;20057;-61
2024/04/07 10:09:23;;;;;;;2.42;0.65;;;;;;;;;;5024235;28;20058;-64
2024/04/07 10:11:55;;;;;;;12.07;3.88;;;;;;;;;;5030143;28;20049;-63
2024/04/07 10:14:22;;;;;;;2.65;0.90;;;;;;;;;;5005801;28;20057;-62
2024/04/07 10:16:51;;;;;;;3.00;0.68;;;;;;;;;;5019998;28;20054;-62
2024/04/07 10:19:18;;;;;;;;;;;;;;;;;;5023626;28;20077;-62
2024/04/07 10:21:44;;;;;;;4.47;0.82;;;;;;;;;;5019454;28;19939;-62
2024/04/07 10:24:14;;;;;;;3.88;0.60;;;;;;;;;;5012935;28;20272;-62
2024/04/07 10:26:54;;;;;;;8.38;0.70;;;;;;;;;;5042120;28;20068;-62
2024/04/07 10:29:26;;;;;;;2.50;0.73;;;;;;;;;;5020130;28;20073;-62
2024/04/07 10:31:52;;;;;;;3.03;0.68;;;;;;;;;;5017804;28;20123;-62
2024/04/07 10:34:25;;;;;;;2.47;0.80;;;;;;;;;;4982160;28;20377;-64
2024/04/07 10:36:58;;;;;;;3.42;1.05;;;;;;;;;;4980904;28;20144;-63
2024/04/07 10:39:30;;;;;;;4.30;1.42;;;;;;;;;;5020271;28;20194;-63
2024/04/07 10:42:05;;;;;;;4.93;1.20;;;;;;;;;;5016185;28;21156;-64
2024/04/07 10:44:34;;;;;;;4.40;0.85;;;;;;;;;;5013379;28;20124;-62
2024/04/07 10:47:03;;;;;;;5.75;0.90;;;;;;;;;;5026580;28;20084;-64
2024/04/07 10:49:29;;;;;;;;;;;;;;;;;;5028180;28;20096;-64
2024/04/07 10:52:12;;;;;;;1.02;0.47;;;;;;;;;;5036052;28;19935;-63
2024/04/07 10:57:47;;;;;;;4.20;0.65;;;;;;;;;;5036265;28;20185;-63
2024/04/07 11:00:16;;;;;;;1.60;0.52;;;;;;;;;;5004080;28;20120;-66
2024/04/07 11:02:54;;;;;;;1.52;0.70;;;;;;;;;;5008531;28;20940;-63
2024/04/07 11:05:30;;;;;;;6.40;0.57;;;;;;;;;;4947088;28;20069;-64
2024/04/07 11:08:03;;;;;;;4.38;1.25;;;;;;;;;;4997615;28;20064;-63
2024/04/07 11:10:37;;;;;;;8.43;2.30;;;;;;;;;;5034093;28;20064;-64
2024/04/07 11:13:10;;;;;;;4.63;0.98;;;;;;;;;;5021194;28;20052;-63
2024/04/07 11:15:36;;;;;;;3.40;0.93;;;;;;;;;;5015316;28;20067;-65
2024/04/07 11:18:15;;;;;;;5.72;1.48;;;;;;;;;;5024943;28;20167;-66
2024/04/07 11:20:43;;;;;;;;;;;;;;;;;;5010843;28;20061;-65
2024/04/07 11:23:10;;;;;;;2.47;0.60;;;;;;;;;;5013456;28;19924;-64
2024/04/07 11:25:37;;;;;;;0.95;0.43;;;;;;;;;;5003475;28;20053;-65
2024/04/07 11:28:06;;;;;;;3.65;0.70;;;;;;;;;;5005416;28;20068;-65
2024/04/07 11:30:38;;;;;;;1.88;0.50;;;;;;;;;;5015150;28;20057;-66
2024/04/07 11:33:12;;;;;;;3.88;1.08;;;;;;;;;;5004082;28;20118;-66
2024/04/07 11:35:42;;;;;;;3.90;1.65;;;;;;;;;;4954069;28;20060;-66
2024/04/07 11:38:13;;;;;;;1.55;0.63;;;;;;;;;;5023793;28;20057;-66
2024/04/07 11:40:39;;;;;;;4.68;1.58;;;;;;;;;;5011473;28;20056;-61
2024/04/07 11:43:10;;;;;;;3.15;0.70;;;;;;;;;;5004991;28;20152;-65
2024/04/07 11:45:38;;;;;;;1.15;0.50;;;;;;;;;;4993086;28;20120;-63
2024/04/07 11:48:09;;;;;;;2.75;0.57;;;;;;;;;;5005733;28;20057;-63
2024/04/07 11:50:35;;;;;;;1.33;0.60;;;;;;;;;;5021918;28;20158;-65
2024/04/07 11:53:02;;;;;;;3.45;0.70;;;;;;;;;;5028612;28;20049;-63
2024/04/07 11:55:29;;;;;;;1.45;0.50;;;;;;;;;;4986454;28;20057;-64
2024/04/07 11:57:56;;;;;;;1.35;0.60;;;;;;;;;;5002439;28;20052;-63
2024/04/07 12:00:24;;;;;;;1.38;0.60;;;;;;;;;;5007595;28;20083;-64
2024/04/07 12:02:53;;;;;;;5.28;0.65;;;;;;;;;;5012959;28;20049;-63
2024/04/07 12:05:21;;;;;;;2.38;0.52;;;;;;;;;;4985698;28;20060;-63
2024/04/07 12:07:48;;;;;;;1.80;0.50;;;;;;;;;;4986428;28;20084;-63
2024/04/07 12:10:18;;;;;;;1.38;0.50;;;;;;;;;;5001917;28;20053;-63
2024/04/07 12:12:45;;;;;;;1.13;0.50;;;;;;;;;;5017857;28;20059;-63
2024/04/07 12:15:11;;;;;;;1.30;0.50;;;;;;;;;;4974510;28;20053;-64
2024/04/07 12:17:40;;;;;;;;;;;;;;;;;;5016887;28;20053;-66
2024/04/07 12:20:10;;;;;;;2.92;0.63;;;;;;;;;;5011548;28;20028;-62
2024/04/07 12:22:42;;;;;;;0.70;0.47;;;;;;;;;;4999587;28;20049;-63
2024/04/07 12:25:07;;;;;;;2.17;0.70;;;;;;;;;;4982110;28;20137;-64
2024/04/07 12:27:37;;;;;;;11.30;0.60;;;;;;;;;;4989657;28;20060;-64
2024/04/07 12:30:04;;;;;;;10.40;4.15;;;;;;;;;;5019546;28;20045;-64
2024/04/07 12:32:33;;;;;;;6.93;2.85;;;;;;;;;;5018999;28;20161;-65
2024/04/07 12:34:59;;;;;;;2.47;0.70;;;;;;;;;;4993144;28;20053;-63
2024/04/07 12:37:29;;;;;;;0.55;0.40;;;;;;;;;;5017969;28;20064;-63
2024/04/07 12:39:55;;;;;;;3.10;0.65;;;;;;;;;;5002229;28;20053;-68
2024/04/07 12:42:26;;;;;;;0.98;0.43;;;;;;;;;;4999785;28;20049;-66
2024/04/07 12:44:56;;;;;;;5.03;0.77;;;;;;;;;;5004471;28;20067;-65
2024/04/07 12:47:26;;;;;;;5.43;0.70;;;;;;;;;;5009355;28;20080;-65
2024/04/07 12:49:54;;;;;;;3.03;0.60;;;;;;;;;;5013332;28;20041;-64
2024/04/07 12:52:24;;;;;;;1.45;0.50;;;;;;;;;;5011531;28;20072;-66
2024/04/07 12:54:51;;;;;;;2.08;0.80;;;;;;;;;;5010264;28;20057;-67
2024/04/07 12:57:18;;;;;;;5.65;0.98;;;;;;;;;;4994165;28;20084;-64
2024/04/07 12:59:44;;;;;;;1.48;0.45;;;;;;;;;;5010241;28;20139;-63
2024/04/07 13:02:11;;;;;;;8.80;0.70;;;;;;;;;;5014548;28;20141;-64
2024/04/07 13:04:40;;;;;;;5.03;0.50;;;;;;;;;;5002247;28;20065;-63
2024/04/07 13:07:07;;;;;;;1.30;0.63;;;;;;;;;;5018934;28;20143;-64
2024/04/07 13:09:33;;;;;;;2.80;0.63;;;;;;;;;;5017716;28;20064;-63
2024/04/07 13:12:05;;;;;;;;;;;;;;;;;;5018591;28;20073;-64
2024/04/07 13:14:32;;;;;;;3.97;0.70;;;;;;;;;;5002108;28;19968;-63
2024/04/07 13:17:01;;;;;;;0.82;0.40;;;;;;;;;;4965048;28;20064;-64
2024/04/07 13:19:34;;;;;;;0.93;0.35;;;;;;;;;;5012389;28;20061;-63
2024/04/07 13:22:00;;;;;;;0.82;0.40;;;;;;;;;;5013600;28;20255;-65
2024/04/07 13:24:26;;;;;;;1.85;0.50;;;;;;;;;;5024937;28;20053;-63
2024/04/07 13:26:52;;;;;;;1.20;0.60;;;;;;;;;;4988139;28;20068;-63
2024/04/07 13:29:25;;;;;;;2.95;1.60;;;;;;;;;;5004975;28;20049;-66
2024/04/07 13:31:53;;;;;;;1.58;0.70;;;;;;;;;;5012891;28;20057;-63
2024/04/07 13:34:25;;;;;;;3.03;0.93;;;;;;;;;;4998140;28;20053;-64
2024/04/07 13:36:51;;;;;;;6.35;2.17;;;;;;;;;;5003316;28;20061;-65
2024/04/07 13:39:18;;;;;;;2.88;0.88;;;;;;;;;;5013248;28;20053;-64
2024/04/07 13:41:49;;;;;;;1.08;0.60;;;;;;;;;;5006632;28;20072;-65
2024/04/07 13:44:16;;;;;;;0.70;0.47;;;;;;;;;;5012963;28;20120;-63
2024/04/07 13:46:49;;;;;;;2.75;0.40;;;;;;;;;;4962336;28;20057;-63
2024/04/07 13:49:17;;;;;;;1.30;0.35;;;;;;;;;;5002307;28;20103;-64
2024/04/07 13:51:43;;;;;;;1.08;0.47;;;;;;;;;;5013457;28;20053;-65
2024/04/07 13:54:10;;;;;;;0.98;0.50;;;;;;;;;;5022919;28;20057;-65
2024/04/07 13:56:36;;;;;;;0.93;0.50;;;;;;;;;;4995566;28;20167;-65
2024/04/07 13:59:03;;;;;;;2.22;0.35;;;;;;;;;;5008952;28;20132;-64
2024/04/07 14:01:38;;;;;;;0.50;0.38;;;;;;;;;;5028589;28;20056;-65
2024/04/07 14:04:07;;;;;;;1.83;0.60;;;;;;;;;;5028597;28;20049;-65
2024/04/07 14:06:33;;;;;;;1.42;0.47;;;;;;;;;;4992899;28;20123;-64
2024/04/07 14:09:02;;;;;;;3.00;1.02;;;;;;;;;;5026956;28;20060;-64
2024/04/07 14:11:28;;;;;;;4.35;1.15;;;;;;;;;;5029279;28;20049;-63
2024/04/07 14:13:56;;;;;;;1.65;0.55;;;;;;;;;;5030354;28;20064;-65
2024/04/07 14:16:25;;;;;;;1.40;0.47;;;;;;;;;;5024690;28;20049;-64
2024/04/07 14:18:52;;;;;;;0.57;0.40;;;;;;;;;;5026823;28;20065;-65
2024/04/07 14:21:22;;;;;;;1.38;0.57;;;;;;;;;;5028389;28;20053;-65
2024/04/07 14:23:49;;;;;;;9.35;3.38;;;;;;;;;;5020892;28;20056;-66
2024/04/07 14:26:15;;;;;;;11.25;3.13;;;;;;;;;;5005784;28;20052;-66
2024/04/07 14:28:43;;;;;;;0.47;0.40;;;;;;;;;;5029930;28;20200;-64
2024/04/07 14:31:13;;;;;;;4.00;0.70;;;;;;;;;;5012108;28;20053;-65
2024/04/07 14:33:46;;;;;;;2.88;0.40;;;;;;;;;;5046872;28;20144;-64
2024/04/07 14:36:17;;;;;;;2.92;1.40;;;;;;;;;;4989043;28;20045;-67
2024/04/07 14:38:46;;;;;;;3.78;1.45;;;;;;;;;;5033015;28;20142;-65
2024/04/07 14:41:11;;;;;;;2.63;0.70;;;;;;;;;;5035353;28;20140;-66
2024/04/07 14:43:43;;;;;;;4.05;0.50;;;;;;;;;;5035189;28;20127;-66
2024/04/07 14:46:09;;;;;;;1.70;0.55;;;;;;;;;;4948494;28;20125;-67
2024/04/07 14:48:47;;;;;;;0.43;0.40;;;;;;;;;;4991008;28;20061;-65
2024/04/07 14:51:15;;;;;;;1.92;0.60;;;;;;;;;;5000300;28;20210;-65
2024/04/07 14:53:53;;;;;;;;;;;;;;;;;;;;;
2024/04/07 14:56:23;;;;;;;1.10;0.45;;;;;;;;;;4916554;28;20122;-66
2024/04/07 14:58:57;;;;;;;1.52;0.47;;;;;;;;;;4949016;28;20166;-67